FDX90 KEWR-KRDU
Flight info
| Callsign | FDX90 |
|---|---|
| Flight time | 1h 21m |
| Altitude | 30000 |
| Route | ELVAE NECCK WHITE Q409 VILLS NALES Q141 HOUKY TAQLE3 |
| Aircraft | B77L/H-SDE2E3FGHIJ5LORVWXY/LB1D1 |
Departure
| Time | 2026-05-07 00:34 |
|---|---|
| Airport | Newark Liberty International Airport (KEWR) |
Arrival
| Time | 2026-05-07 01:55 |
|---|---|
| Airport | Raleigh-Durham International Airport (KRDU) |
| Time | Latitude | Longitude | Altitude | Speed | Heading |
|---|---|---|---|---|---|
| 2026-05-07 00:09 | 40.67659 | -74.18293 | 33 ft | 0 kts | 206° |
| 2026-05-07 00:21 | 40.67668 | -74.18288 | 33 ft | 2 kts | 206° |
| 2026-05-07 00:21 | 40.67676 | -74.18282 | 33 ft | 2 kts | 205° |
| 2026-05-07 00:21 | 40.67690 | -74.18276 | 33 ft | 2 kts | 186° |
| 2026-05-07 00:21 | 40.67705 | -74.18276 | 34 ft | 2 kts | 169° |
| 2026-05-07 00:22 | 40.67719 | -74.18282 | 34 ft | 2 kts | 154° |
| 2026-05-07 00:22 | 40.67732 | -74.18292 | 34 ft | 2 kts | 137° |
| 2026-05-07 00:22 | 40.67742 | -74.18307 | 34 ft | 2 kts | 121° |
| 2026-05-07 00:22 | 40.67745 | -74.18315 | 34 ft | 0 kts | 115° |
| 2026-05-07 00:25 | 40.67742 | -74.18306 | 33 ft | 2 kts | 115° |
| 2026-05-07 00:25 | 40.67732 | -74.18277 | 33 ft | 4 kts | 115° |
| 2026-05-07 00:25 | 40.67710 | -74.18220 | 33 ft | 8 kts | 117° |
| 2026-05-07 00:26 | 40.67695 | -74.18137 | 33 ft | 8 kts | 62° |
| 2026-05-07 00:26 | 40.67750 | -74.18089 | 33 ft | 11 kts | 27° |
| 2026-05-07 00:26 | 40.67834 | -74.18036 | 33 ft | 16 kts | 26° |
| 2026-05-07 00:26 | 40.67961 | -74.17955 | 33 ft | 23 kts | 25° |
| 2026-05-07 00:27 | 40.68126 | -74.17851 | 33 ft | 28 kts | 26° |
| 2026-05-07 00:27 | 40.68297 | -74.17743 | 33 ft | 25 kts | 25° |
| 2026-05-07 00:27 | 40.68452 | -74.17643 | 33 ft | 23 kts | 27° |
| 2026-05-07 00:27 | 40.68594 | -74.17553 | 33 ft | 21 kts | 25° |
| 2026-05-07 00:28 | 40.68724 | -74.17471 | 34 ft | 19 kts | 25° |
| 2026-05-07 00:28 | 40.68847 | -74.17395 | 33 ft | 20 kts | 25° |
| 2026-05-07 00:28 | 40.68975 | -74.17313 | 33 ft | 20 kts | 26° |
| 2026-05-07 00:28 | 40.69107 | -74.17227 | 33 ft | 21 kts | 26° |
| 2026-05-07 00:29 | 40.69245 | -74.17141 | 34 ft | 22 kts | 25° |
| 2026-05-07 00:29 | 40.69378 | -74.17056 | 33 ft | 20 kts | 26° |
| 2026-05-07 00:30 | 40.69659 | -74.16848 | 34 ft | 11 kts | 63° |
| 2026-05-07 00:30 | 40.69693 | -74.16750 | 33 ft | 11 kts | 51° |
| 2026-05-07 00:30 | 40.69759 | -74.16694 | 34 ft | 11 kts | 25° |
| 2026-05-07 00:30 | 40.69835 | -74.16647 | 33 ft | 11 kts | 25° |
| 2026-05-07 00:31 | 40.69911 | -74.16599 | 33 ft | 13 kts | 26° |
| 2026-05-07 00:31 | 40.69997 | -74.16543 | 33 ft | 13 kts | 26° |
| 2026-05-07 00:31 | 40.70052 | -74.16506 | 33 ft | 5 kts | 39° |
| 2026-05-07 00:31 | 40.70056 | -74.16501 | 34 ft | 0 kts | 55° |
| 2026-05-07 00:32 | 40.70062 | -74.16482 | 34 ft | 4 kts | 76° |
| 2026-05-07 00:32 | 40.70061 | -74.16407 | 33 ft | 9 kts | 99° |
| 2026-05-07 00:32 | 40.70021 | -74.16371 | 33 ft | 7 kts | 194° |
| 2026-05-07 00:33 | 40.69967 | -74.16402 | 34 ft | 13 kts | 205° |
| 2026-05-07 00:33 | 40.69660 | -74.16597 | 34 ft | 86 kts | 206° |
| 2026-05-07 00:33 | 40.68926 | -74.17064 | 34 ft | 150 kts | 205° |
| 2026-05-07 00:33 | 40.67849 | -74.17751 | 294 ft | 182 kts | 207° |
| 2026-05-07 00:34 | 40.66694 | -74.18375 | 1207 ft | 181 kts | 191° |
| 2026-05-07 00:34 | 40.65460 | -74.18393 | 1879 ft | 186 kts | 186° |
| 2026-05-07 00:34 | 40.64216 | -74.18775 | 2388 ft | 190 kts | 209° |
| 2026-05-07 00:34 | 40.62947 | -74.19690 | 2483 ft | 226 kts | 214° |
| 2026-05-07 00:35 | 40.61524 | -74.20788 | 2843 ft | 243 kts | 215° |
| 2026-05-07 00:35 | 40.60043 | -74.21931 | 3687 ft | 250 kts | 215° |
| 2026-05-07 00:35 | 40.58632 | -74.23217 | 4504 ft | 253 kts | 223° |
| 2026-05-07 00:35 | 40.57286 | -74.24674 | 4902 ft | 250 kts | 224° |
| 2026-05-07 00:36 | 40.55899 | -74.26090 | 4969 ft | 251 kts | 213° |
| 2026-05-07 00:36 | 40.54239 | -74.26765 | 4982 ft | 259 kts | 189° |
| 2026-05-07 00:36 | 40.52388 | -74.26454 | 4992 ft | 271 kts | 169° |
| 2026-05-07 00:36 | 40.50618 | -74.25653 | 4993 ft | 273 kts | 165° |
| 2026-05-07 00:37 | 40.48808 | -74.24749 | 4999 ft | 275 kts | 165° |
| 2026-05-07 00:37 | 40.47023 | -74.23854 | 4992 ft | 275 kts | 165° |
| 2026-05-07 00:37 | 40.45246 | -74.22969 | 4991 ft | 274 kts | 165° |
| 2026-05-07 00:37 | 40.43446 | -74.22076 | 5005 ft | 275 kts | 165° |
| 2026-05-07 00:38 | 40.41657 | -74.21188 | 4982 ft | 275 kts | 165° |
| 2026-05-07 00:38 | 40.39867 | -74.20301 | 4993 ft | 276 kts | 165° |
| 2026-05-07 00:38 | 40.38057 | -74.19405 | 5030 ft | 276 kts | 165° |
| 2026-05-07 00:38 | 40.36268 | -74.18520 | 5010 ft | 275 kts | 165° |
| 2026-05-07 00:39 | 40.34463 | -74.17629 | 4986 ft | 275 kts | 166° |
| 2026-05-07 00:39 | 40.32576 | -74.17288 | 5207 ft | 281 kts | 192° |
| 2026-05-07 00:39 | 40.30696 | -74.17693 | 6423 ft | 269 kts | 197° |
| 2026-05-07 00:39 | 40.28924 | -74.18127 | 7524 ft | 262 kts | 197° |
| 2026-05-07 00:40 | 40.27121 | -74.18576 | 8331 ft | 265 kts | 198° |
| 2026-05-07 00:40 | 40.25316 | -74.19026 | 9167 ft | 266 kts | 198° |
| 2026-05-07 00:40 | 40.23519 | -74.19473 | 10012 ft | 266 kts | 198° |
| 2026-05-07 00:40 | 40.21666 | -74.19937 | 10565 ft | 277 kts | 198° |
| 2026-05-07 00:41 | 40.19739 | -74.20423 | 11013 ft | 294 kts | 198° |
| 2026-05-07 00:41 | 40.17672 | -74.20944 | 11431 ft | 311 kts | 198° |
| 2026-05-07 00:41 | 40.15463 | -74.21499 | 11856 ft | 330 kts | 198° |
| 2026-05-07 00:41 | 40.13174 | -74.22071 | 12292 ft | 346 kts | 198° |
| 2026-05-07 00:42 | 40.10781 | -74.22662 | 13044 ft | 353 kts | 197° |
| 2026-05-07 00:42 | 40.08347 | -74.23257 | 14036 ft | 355 kts | 198° |
| 2026-05-07 00:42 | 40.05918 | -74.23852 | 14919 ft | 360 kts | 198° |
| 2026-05-07 00:42 | 40.03431 | -74.24473 | 15620 ft | 369 kts | 200° |
| 2026-05-07 00:43 | 40.01006 | -74.25473 | 16319 ft | 370 kts | 210° |
| 2026-05-07 00:43 | 39.98737 | -74.27053 | 17104 ft | 367 kts | 220° |
| 2026-05-07 00:43 | 39.96654 | -74.28979 | 17983 ft | 369 kts | 223° |
| 2026-05-07 00:43 | 39.94614 | -74.30918 | 18977 ft | 368 kts | 223° |
| 2026-05-07 00:44 | 39.92556 | -74.32877 | 19914 ft | 368 kts | 224° |
| 2026-05-07 00:44 | 39.90496 | -74.34837 | 20803 ft | 369 kts | 225° |
| 2026-05-07 00:44 | 39.88417 | -74.36816 | 21639 ft | 370 kts | 225° |
| 2026-05-07 00:44 | 39.86333 | -74.38796 | 22485 ft | 371 kts | 225° |
| 2026-05-07 00:45 | 39.84257 | -74.40768 | 23283 ft | 372 kts | 226° |
| 2026-05-07 00:45 | 39.82190 | -74.42770 | 23928 ft | 373 kts | 229° |
| 2026-05-07 00:45 | 39.80272 | -74.45087 | 24451 ft | 374 kts | 233° |
| 2026-05-07 00:45 | 39.78462 | -74.47494 | 25110 ft | 377 kts | 234° |
| 2026-05-07 00:46 | 39.76628 | -74.49935 | 25870 ft | 378 kts | 233° |
| 2026-05-07 00:46 | 39.74780 | -74.52391 | 26564 ft | 381 kts | 234° |
| 2026-05-07 00:46 | 39.72930 | -74.54848 | 27163 ft | 386 kts | 233° |
| 2026-05-07 00:46 | 39.71069 | -74.57315 | 27848 ft | 388 kts | 234° |
| 2026-05-07 00:47 | 39.69168 | -74.59832 | 28490 ft | 392 kts | 233° |
| 2026-05-07 00:47 | 39.67263 | -74.62351 | 29129 ft | 395 kts | 234° |
| 2026-05-07 00:47 | 39.65322 | -74.64919 | 29532 ft | 403 kts | 233° |
| 2026-05-07 00:47 | 39.63324 | -74.67557 | 30083 ft | 408 kts | 233° |
| 2026-05-07 00:48 | 39.61350 | -74.70156 | 30974 ft | 405 kts | 233° |
| 2026-05-07 00:48 | 39.59417 | -74.72697 | 31927 ft | 399 kts | 233° |
| 2026-05-07 00:48 | 39.57481 | -74.75240 | 32887 ft | 392 kts | 234° |
| 2026-05-07 00:48 | 39.55568 | -74.77754 | 33652 ft | 388 kts | 234° |
| 2026-05-07 00:49 | 39.53667 | -74.80257 | 33874 ft | 391 kts | 235° |
| 2026-05-07 00:49 | 39.51778 | -74.82738 | 33879 ft | 389 kts | 234° |
| 2026-05-07 00:49 | 39.47969 | -74.87736 | 33875 ft | 390 kts | 235° |
| 2026-05-07 00:50 | 39.44149 | -74.92738 | 33868 ft | 387 kts | 234° |
| 2026-05-07 00:50 | 39.40367 | -74.97683 | 33866 ft | 390 kts | 234° |
| 2026-05-07 00:51 | 39.36563 | -75.02644 | 33860 ft | 386 kts | 235° |
| 2026-05-07 00:51 | 39.32753 | -75.07611 | 33859 ft | 388 kts | 235° |
| 2026-05-07 00:52 | 39.28947 | -75.12562 | 33862 ft | 388 kts | 234° |
| 2026-05-07 00:52 | 39.25143 | -75.17501 | 33862 ft | 389 kts | 234° |
| 2026-05-07 00:53 | 39.21334 | -75.22440 | 33859 ft | 388 kts | 235° |
| 2026-05-07 00:53 | 39.17527 | -75.27368 | 33859 ft | 388 kts | 234° |
| 2026-05-07 00:54 | 39.13736 | -75.32267 | 33856 ft | 389 kts | 235° |
| 2026-05-07 00:54 | 39.09902 | -75.37213 | 33855 ft | 388 kts | 235° |
| 2026-05-07 00:55 | 39.06079 | -75.42137 | 33850 ft | 388 kts | 235° |
| 2026-05-07 00:55 | 39.02271 | -75.47035 | 33850 ft | 390 kts | 235° |
| 2026-05-07 00:56 | 38.98412 | -75.51990 | 33853 ft | 392 kts | 235° |
| 2026-05-07 00:56 | 38.94569 | -75.56915 | 33845 ft | 388 kts | 234° |
| 2026-05-07 00:57 | 38.90730 | -75.61831 | 33856 ft | 391 kts | 235° |
| 2026-05-07 00:57 | 38.89023 | -75.64437 | 33847 ft | 380 kts | 244° |
| 2026-05-07 00:57 | 38.87644 | -75.67330 | 33883 ft | 381 kts | 247° |
| 2026-05-07 00:58 | 38.85001 | -75.73214 | 33877 ft | 376 kts | 246° |
| 2026-05-07 00:58 | 38.82392 | -75.79012 | 33880 ft | 377 kts | 246° |
| 2026-05-07 00:59 | 38.78476 | -75.87690 | 33875 ft | 378 kts | 246° |
| 2026-05-07 01:00 | 38.75862 | -75.93465 | 33882 ft | 378 kts | 247° |
| 2026-05-07 01:00 | 38.72802 | -75.98989 | 33871 ft | 385 kts | 233° |
| 2026-05-07 01:01 | 38.68568 | -76.03339 | 33878 ft | 397 kts | 229° |
| 2026-05-07 01:01 | 38.64113 | -76.07677 | 33882 ft | 403 kts | 228° |
| 2026-05-07 01:02 | 38.59675 | -76.11983 | 33885 ft | 402 kts | 228° |
| 2026-05-07 01:02 | 38.55235 | -76.16286 | 33884 ft | 400 kts | 228° |
| 2026-05-07 01:03 | 38.50805 | -76.20574 | 33886 ft | 398 kts | 228° |
| 2026-05-07 01:03 | 38.46372 | -76.24863 | 33889 ft | 402 kts | 228° |
| 2026-05-07 01:04 | 38.41922 | -76.29159 | 33889 ft | 402 kts | 229° |
| 2026-05-07 01:04 | 38.37468 | -76.33452 | 33879 ft | 402 kts | 229° |
| 2026-05-07 01:05 | 38.32996 | -76.37756 | 33885 ft | 403 kts | 228° |
| 2026-05-07 01:05 | 38.28652 | -76.42168 | 33885 ft | 396 kts | 235° |
| 2026-05-07 01:06 | 38.24846 | -76.47248 | 33874 ft | 392 kts | 237° |
| 2026-05-07 01:06 | 38.21116 | -76.52270 | 33882 ft | 393 kts | 237° |
| 2026-05-07 01:07 | 38.17355 | -76.57319 | 33877 ft | 392 kts | 237° |
| 2026-05-07 01:07 | 38.13618 | -76.62328 | 33883 ft | 394 kts | 237° |
| 2026-05-07 01:08 | 38.09840 | -76.67376 | 33874 ft | 393 kts | 236° |
| 2026-05-07 01:08 | 38.07945 | -76.69907 | 33620 ft | 394 kts | 236° |
| 2026-05-07 01:08 | 38.06073 | -76.72407 | 33370 ft | 393 kts | 236° |
| 2026-05-07 01:08 | 38.04169 | -76.74945 | 33124 ft | 394 kts | 235° |
| 2026-05-07 01:09 | 38.02289 | -76.77451 | 32880 ft | 397 kts | 236° |
| 2026-05-07 01:09 | 38.00378 | -76.80000 | 32633 ft | 402 kts | 235° |
| 2026-05-07 01:09 | 37.98374 | -76.82513 | 32380 ft | 409 kts | 230° |
| 2026-05-07 01:09 | 37.96044 | -76.84598 | 32120 ft | 418 kts | 220° |
| 2026-05-07 01:10 | 37.93350 | -76.86171 | 31871 ft | 429 kts | 212° |
| 2026-05-07 01:10 | 37.90495 | -76.87491 | 31624 ft | 444 kts | 211° |
| 2026-05-07 01:10 | 37.87610 | -76.88790 | 31369 ft | 445 kts | 210° |
| 2026-05-07 01:10 | 37.84673 | -76.90112 | 31119 ft | 444 kts | 210° |
| 2026-05-07 01:11 | 37.81790 | -76.91410 | 30865 ft | 444 kts | 210° |
| 2026-05-07 01:11 | 37.78873 | -76.92727 | 30620 ft | 446 kts | 210° |
| 2026-05-07 01:11 | 37.75954 | -76.94044 | 30365 ft | 442 kts | 209° |
| 2026-05-07 01:11 | 37.73056 | -76.95349 | 30107 ft | 438 kts | 210° |
| 2026-05-07 01:12 | 37.70196 | -76.96640 | 29852 ft | 437 kts | 209° |
| 2026-05-07 01:12 | 37.67319 | -76.97939 | 29597 ft | 437 kts | 209° |
| 2026-05-07 01:12 | 37.64491 | -76.99216 | 29343 ft | 434 kts | 208° |
| 2026-05-07 01:12 | 37.61638 | -77.00501 | 29080 ft | 434 kts | 208° |
| 2026-05-07 01:13 | 37.58805 | -77.01779 | 28831 ft | 433 kts | 208° |
| 2026-05-07 01:13 | 37.55991 | -77.03046 | 28572 ft | 431 kts | 208° |
| 2026-05-07 01:13 | 37.53186 | -77.04308 | 28316 ft | 429 kts | 208° |
| 2026-05-07 01:13 | 37.50351 | -77.05582 | 28053 ft | 428 kts | 208° |
| 2026-05-07 01:14 | 37.47561 | -77.06837 | 27803 ft | 429 kts | 208° |
| 2026-05-07 01:14 | 37.44748 | -77.08100 | 27547 ft | 427 kts | 208° |
| 2026-05-07 01:14 | 37.41928 | -77.09206 | 27283 ft | 432 kts | 201° |
| 2026-05-07 01:14 | 37.38942 | -77.09727 | 27019 ft | 438 kts | 192° |
| 2026-05-07 01:15 | 37.35883 | -77.09590 | 26752 ft | 440 kts | 182° |
| 2026-05-07 01:15 | 37.32901 | -77.08786 | 26587 ft | 440 kts | 171° |
| 2026-05-07 01:15 | 37.30067 | -77.07340 | 26446 ft | 439 kts | 161° |
| 2026-05-07 01:15 | 37.27487 | -77.05306 | 26306 ft | 438 kts | 150° |
| 2026-05-07 01:16 | 37.25234 | -77.02745 | 26165 ft | 436 kts | 139° |
| 2026-05-07 01:16 | 37.23388 | -76.99754 | 26019 ft | 432 kts | 127° |
| 2026-05-07 01:16 | 37.22037 | -76.96482 | 25875 ft | 428 kts | 114° |
| 2026-05-07 01:16 | 37.21224 | -76.92867 | 25752 ft | 436 kts | 100° |
| 2026-05-07 01:17 | 37.21008 | -76.89033 | 25623 ft | 441 kts | 88° |
| 2026-05-07 01:17 | 37.21316 | -76.85235 | 25498 ft | 438 kts | 80° |
| 2026-05-07 01:17 | 37.21777 | -76.81496 | 25375 ft | 437 kts | 79° |
| 2026-05-07 01:17 | 37.22238 | -76.77743 | 25254 ft | 436 kts | 79° |
| 2026-05-07 01:18 | 37.22705 | -76.73984 | 25134 ft | 434 kts | 79° |
| 2026-05-07 01:18 | 37.23183 | -76.70245 | 25015 ft | 432 kts | 79° |
| 2026-05-07 01:18 | 37.23660 | -76.66546 | 24900 ft | 433 kts | 79° |
| 2026-05-07 01:18 | 37.24145 | -76.62822 | 24782 ft | 433 kts | 78° |
| 2026-05-07 01:19 | 37.24613 | -76.59135 | 24667 ft | 431 kts | 79° |
| 2026-05-07 01:19 | 37.25057 | -76.55452 | 24542 ft | 429 kts | 84° |
| 2026-05-07 01:19 | 37.25032 | -76.51697 | 24420 ft | 428 kts | 98° |
| 2026-05-07 01:19 | 37.24377 | -76.48101 | 24301 ft | 425 kts | 112° |
| 2026-05-07 01:20 | 37.23125 | -76.44753 | 24180 ft | 420 kts | 127° |
| 2026-05-07 01:20 | 37.21385 | -76.41904 | 24066 ft | 410 kts | 141° |
| 2026-05-07 01:20 | 37.19239 | -76.39635 | 23940 ft | 396 kts | 155° |
| 2026-05-07 01:20 | 37.16846 | -76.38094 | 23919 ft | 381 kts | 167° |
| 2026-05-07 01:21 | 37.14347 | -76.36936 | 23926 ft | 383 kts | 168° |
| 2026-05-07 01:21 | 37.11851 | -76.35827 | 23916 ft | 380 kts | 169° |
| 2026-05-07 01:21 | 37.09335 | -76.34725 | 23919 ft | 382 kts | 169° |
| 2026-05-07 01:21 | 37.06850 | -76.33633 | 23912 ft | 380 kts | 169° |
| 2026-05-07 01:22 | 37.04359 | -76.32545 | 23905 ft | 380 kts | 169° |
| 2026-05-07 01:22 | 37.01859 | -76.31467 | 23911 ft | 381 kts | 169° |
| 2026-05-07 01:22 | 36.99348 | -76.30375 | 23906 ft | 380 kts | 169° |
| 2026-05-07 01:22 | 36.96843 | -76.29285 | 23907 ft | 378 kts | 169° |
| 2026-05-07 01:23 | 36.94335 | -76.28423 | 23906 ft | 370 kts | 181° |
| 2026-05-07 01:23 | 36.91735 | -76.28275 | 23885 ft | 377 kts | 192° |
| 2026-05-07 01:23 | 36.89144 | -76.28787 | 23769 ft | 387 kts | 204° |
| 2026-05-07 01:23 | 36.86571 | -76.30022 | 23647 ft | 398 kts | 214° |
| 2026-05-07 01:24 | 36.84208 | -76.31854 | 23525 ft | 406 kts | 223° |
| 2026-05-07 01:24 | 36.82119 | -76.34184 | 23387 ft | 400 kts | 232° |
| 2026-05-07 01:24 | 36.80425 | -76.36854 | 23257 ft | 392 kts | 241° |
| 2026-05-07 01:24 | 36.79130 | -76.39794 | 23124 ft | 386 kts | 249° |
| 2026-05-07 01:25 | 36.78087 | -76.42883 | 22994 ft | 381 kts | 251° |
| 2026-05-07 01:25 | 36.77089 | -76.45898 | 22856 ft | 379 kts | 251° |
| 2026-05-07 01:25 | 36.76078 | -76.48957 | 22627 ft | 382 kts | 251° |
| 2026-05-07 01:25 | 36.75074 | -76.51986 | 22375 ft | 379 kts | 251° |
| 2026-05-07 01:26 | 36.74074 | -76.55002 | 22120 ft | 375 kts | 251° |
| 2026-05-07 01:26 | 36.73084 | -76.57983 | 21868 ft | 375 kts | 251° |
| 2026-05-07 01:26 | 36.72089 | -76.60980 | 21615 ft | 375 kts | 251° |
| 2026-05-07 01:26 | 36.71092 | -76.63978 | 21357 ft | 373 kts | 251° |
| 2026-05-07 01:27 | 36.70098 | -76.66965 | 21125 ft | 372 kts | 250° |
| 2026-05-07 01:27 | 36.69090 | -76.69997 | 21200 ft | 388 kts | 250° |
| 2026-05-07 01:27 | 36.68070 | -76.73051 | 21201 ft | 371 kts | 251° |
| 2026-05-07 01:27 | 36.67108 | -76.75919 | 21258 ft | 352 kts | 251° |
| 2026-05-07 01:28 | 36.66186 | -76.78669 | 21332 ft | 334 kts | 251° |
| 2026-05-07 01:28 | 36.65313 | -76.81270 | 21229 ft | 321 kts | 251° |
| 2026-05-07 01:28 | 36.64470 | -76.83778 | 21106 ft | 309 kts | 251° |
| 2026-05-07 01:28 | 36.63655 | -76.86203 | 20986 ft | 299 kts | 251° |
| 2026-05-07 01:29 | 36.62861 | -76.88569 | 20867 ft | 296 kts | 251° |
| 2026-05-07 01:29 | 36.62064 | -76.90945 | 20749 ft | 298 kts | 251° |
| 2026-05-07 01:29 | 36.61266 | -76.93321 | 20634 ft | 298 kts | 252° |
| 2026-05-07 01:29 | 36.60471 | -76.95686 | 20527 ft | 296 kts | 251° |
| 2026-05-07 01:30 | 36.59678 | -76.98044 | 20402 ft | 295 kts | 252° |
| 2026-05-07 01:30 | 36.58881 | -77.00414 | 20280 ft | 295 kts | 252° |
| 2026-05-07 01:30 | 36.58098 | -77.02736 | 20162 ft | 293 kts | 252° |
| 2026-05-07 01:30 | 36.57308 | -77.05080 | 20044 ft | 294 kts | 252° |
| 2026-05-07 01:31 | 36.56517 | -77.07427 | 19923 ft | 294 kts | 252° |
| 2026-05-07 01:31 | 36.55724 | -77.09776 | 19804 ft | 295 kts | 252° |
| 2026-05-07 01:31 | 36.54934 | -77.12113 | 19684 ft | 293 kts | 252° |
| 2026-05-07 01:31 | 36.54149 | -77.14436 | 19562 ft | 292 kts | 252° |
| 2026-05-07 01:32 | 36.53365 | -77.16750 | 19440 ft | 290 kts | 252° |
| 2026-05-07 01:32 | 36.52577 | -77.19077 | 19317 ft | 291 kts | 252° |
| 2026-05-07 01:32 | 36.51797 | -77.21381 | 19189 ft | 290 kts | 252° |
| 2026-05-07 01:32 | 36.51016 | -77.23682 | 19064 ft | 290 kts | 252° |
| 2026-05-07 01:33 | 36.50237 | -77.25977 | 18941 ft | 289 kts | 252° |
| 2026-05-07 01:33 | 36.49461 | -77.28260 | 18815 ft | 288 kts | 252° |
| 2026-05-07 01:33 | 36.48677 | -77.30566 | 18693 ft | 287 kts | 252° |
| 2026-05-07 01:33 | 36.47903 | -77.32843 | 18564 ft | 286 kts | 252° |
| 2026-05-07 01:34 | 36.47138 | -77.35091 | 18436 ft | 286 kts | 252° |
| 2026-05-07 01:34 | 36.46353 | -77.37394 | 18312 ft | 285 kts | 252° |
| 2026-05-07 01:34 | 36.45593 | -77.39621 | 18184 ft | 283 kts | 252° |
| 2026-05-07 01:34 | 36.44823 | -77.41876 | 18048 ft | 283 kts | 252° |
| 2026-05-07 01:35 | 36.44049 | -77.44146 | 17923 ft | 284 kts | 252° |
| 2026-05-07 01:35 | 36.43286 | -77.46379 | 17801 ft | 283 kts | 252° |
| 2026-05-07 01:35 | 36.42521 | -77.48615 | 17675 ft | 281 kts | 252° |
| 2026-05-07 01:35 | 36.41756 | -77.50851 | 17547 ft | 282 kts | 252° |
| 2026-05-07 01:36 | 36.40990 | -77.53086 | 17419 ft | 282 kts | 252° |
| 2026-05-07 01:36 | 36.40223 | -77.55327 | 17292 ft | 280 kts | 252° |
| 2026-05-07 01:36 | 36.39457 | -77.57558 | 17167 ft | 281 kts | 251° |
| 2026-05-07 01:36 | 36.38700 | -77.59766 | 17040 ft | 280 kts | 251° |
| 2026-05-07 01:37 | 36.37932 | -77.62000 | 16902 ft | 278 kts | 251° |
| 2026-05-07 01:37 | 36.37180 | -77.64188 | 16376 ft | 282 kts | 251° |
| 2026-05-07 01:37 | 36.36414 | -77.66416 | 16060 ft | 277 kts | 250° |
| 2026-05-07 01:37 | 36.35661 | -77.68600 | 15936 ft | 274 kts | 250° |
| 2026-05-07 01:38 | 36.34901 | -77.70809 | 15816 ft | 277 kts | 250° |
| 2026-05-07 01:38 | 36.34145 | -77.73003 | 15702 ft | 278 kts | 250° |
| 2026-05-07 01:38 | 36.33392 | -77.75188 | 15579 ft | 276 kts | 250° |
| 2026-05-07 01:38 | 36.32637 | -77.77373 | 15460 ft | 275 kts | 250° |
| 2026-05-07 01:39 | 36.31881 | -77.79562 | 15345 ft | 276 kts | 250° |
| 2026-05-07 01:39 | 36.31128 | -77.81743 | 15225 ft | 276 kts | 250° |
| 2026-05-07 01:39 | 36.30374 | -77.83921 | 15110 ft | 276 kts | 250° |
| 2026-05-07 01:39 | 36.29617 | -77.86108 | 14982 ft | 275 kts | 250° |
| 2026-05-07 01:40 | 36.28869 | -77.88267 | 14707 ft | 273 kts | 250° |
| 2026-05-07 01:40 | 36.28129 | -77.90402 | 14289 ft | 273 kts | 250° |
| 2026-05-07 01:40 | 36.27375 | -77.92577 | 13883 ft | 273 kts | 250° |
| 2026-05-07 01:40 | 36.26630 | -77.94723 | 13499 ft | 272 kts | 249° |
| 2026-05-07 01:41 | 36.25887 | -77.96863 | 13120 ft | 271 kts | 249° |
| 2026-05-07 01:41 | 36.25146 | -77.98994 | 12745 ft | 270 kts | 249° |
| 2026-05-07 01:41 | 36.24407 | -78.01118 | 12370 ft | 269 kts | 249° |
| 2026-05-07 01:41 | 36.23666 | -78.03247 | 11994 ft | 268 kts | 249° |
| 2026-05-07 01:42 | 36.22929 | -78.05360 | 11623 ft | 267 kts | 249° |
| 2026-05-07 01:42 | 36.22162 | -78.07447 | 11257 ft | 266 kts | 248° |
| 2026-05-07 01:42 | 36.21391 | -78.09518 | 10883 ft | 265 kts | 248° |
| 2026-05-07 01:42 | 36.20629 | -78.11581 | 10513 ft | 264 kts | 249° |
| 2026-05-07 01:43 | 36.19924 | -78.13689 | 10143 ft | 263 kts | 250° |
| 2026-05-07 01:43 | 36.19249 | -78.15739 | 9942 ft | 256 kts | 250° |
| 2026-05-07 01:43 | 36.18569 | -78.17780 | 9618 ft | 254 kts | 250° |
| 2026-05-07 01:43 | 36.17898 | -78.19788 | 9255 ft | 254 kts | 250° |
| 2026-05-07 01:44 | 36.17221 | -78.21806 | 8887 ft | 254 kts | 250° |
| 2026-05-07 01:44 | 36.16557 | -78.23782 | 8678 ft | 247 kts | 250° |
| 2026-05-07 01:44 | 36.15898 | -78.25739 | 8345 ft | 244 kts | 250° |
| 2026-05-07 01:44 | 36.15253 | -78.27663 | 7964 ft | 241 kts | 251° |
| 2026-05-07 01:45 | 36.14796 | -78.29619 | 7544 ft | 236 kts | 258° |
| 2026-05-07 01:45 | 36.14456 | -78.31537 | 7456 ft | 222 kts | 258° |
| 2026-05-07 01:45 | 36.14140 | -78.33328 | 7429 ft | 208 kts | 258° |
| 2026-05-07 01:45 | 36.13831 | -78.35062 | 7202 ft | 203 kts | 258° |
| 2026-05-07 01:46 | 36.13529 | -78.36749 | 6862 ft | 203 kts | 258° |
| 2026-05-07 01:46 | 36.13226 | -78.38443 | 6544 ft | 201 kts | 258° |
| 2026-05-07 01:46 | 36.12921 | -78.40143 | 6176 ft | 203 kts | 258° |
| 2026-05-07 01:46 | 36.12619 | -78.41826 | 5871 ft | 201 kts | 257° |
| 2026-05-07 01:47 | 36.12317 | -78.43507 | 5547 ft | 201 kts | 257° |
| 2026-05-07 01:47 | 36.12011 | -78.45200 | 5251 ft | 199 kts | 257° |
| 2026-05-07 01:47 | 36.11655 | -78.46840 | 4933 ft | 198 kts | 251° |
| 2026-05-07 01:47 | 36.11205 | -78.48440 | 4614 ft | 198 kts | 250° |
| 2026-05-07 01:48 | 36.10790 | -78.50066 | 4290 ft | 198 kts | 251° |
| 2026-05-07 01:48 | 36.10200 | -78.51578 | 4022 ft | 196 kts | 238° |
| 2026-05-07 01:48 | 36.09380 | -78.52942 | 3983 ft | 198 kts | 232° |
| 2026-05-07 01:48 | 36.08472 | -78.54194 | 3980 ft | 198 kts | 229° |
| 2026-05-07 01:49 | 36.07517 | -78.55418 | 3977 ft | 197 kts | 228° |
| 2026-05-07 01:49 | 36.06543 | -78.56638 | 3973 ft | 197 kts | 228° |
| 2026-05-07 01:49 | 36.05569 | -78.57846 | 3977 ft | 199 kts | 227° |
| 2026-05-07 01:49 | 36.04588 | -78.59058 | 3973 ft | 199 kts | 227° |
| 2026-05-07 01:50 | 36.03608 | -78.60268 | 3971 ft | 197 kts | 228° |
| 2026-05-07 01:50 | 36.02787 | -78.61280 | 3962 ft | 183 kts | 228° |
| 2026-05-07 01:50 | 36.01906 | -78.62373 | 3779 ft | 177 kts | 228° |
| 2026-05-07 01:50 | 36.01076 | -78.63399 | 3552 ft | 167 kts | 228° |
| 2026-05-07 01:51 | 36.00255 | -78.64413 | 3337 ft | 165 kts | 228° |
| 2026-05-07 01:51 | 35.99440 | -78.65421 | 3123 ft | 164 kts | 227° |
| 2026-05-07 01:51 | 35.98634 | -78.66428 | 2908 ft | 165 kts | 227° |
| 2026-05-07 01:51 | 35.97819 | -78.67431 | 2701 ft | 166 kts | 226° |
| 2026-05-07 01:52 | 35.96997 | -78.68443 | 2486 ft | 165 kts | 227° |
| 2026-05-07 01:52 | 35.96210 | -78.69411 | 2267 ft | 153 kts | 227° |
| 2026-05-07 01:52 | 35.95499 | -78.70289 | 2088 ft | 138 kts | 226° |
| 2026-05-07 01:52 | 35.94822 | -78.71123 | 1912 ft | 139 kts | 226° |
| 2026-05-07 01:53 | 35.94134 | -78.71966 | 1718 ft | 138 kts | 225° |
| 2026-05-07 01:53 | 35.93454 | -78.72807 | 1528 ft | 140 kts | 227° |
| 2026-05-07 01:53 | 35.92762 | -78.73678 | 1275 ft | 145 kts | 224° |
| 2026-05-07 01:53 | 35.92035 | -78.74534 | 1101 ft | 144 kts | 225° |
| 2026-05-07 01:54 | 35.91330 | -78.75424 | 933 ft | 144 kts | 224° |
| 2026-05-07 01:54 | 35.90607 | -78.76289 | 767 ft | 146 kts | 224° |
| 2026-05-07 01:54 | 35.89885 | -78.77193 | 563 ft | 150 kts | 224° |
| 2026-05-07 01:54 | 35.89142 | -78.78100 | 410 ft | 151 kts | 224° |
| 2026-05-07 01:55 | 35.88416 | -78.78987 | 405 ft | 139 kts | 227° |
| 2026-05-07 01:55 | 35.87864 | -78.79679 | 390 ft | 85 kts | 225° |
| 2026-05-07 01:55 | 35.87586 | -78.80022 | 381 ft | 30 kts | 225° |
| 2026-05-07 01:55 | 35.87501 | -78.80083 | 380 ft | 8 kts | 156° |
| 2026-05-07 01:56 | 35.87471 | -78.80059 | 380 ft | 3 kts | 139° |
| 2026-05-07 01:56 | 35.87448 | -78.80022 | 381 ft | 4 kts | 98° |
| 2026-05-07 01:56 | 35.87456 | -78.79994 | 382 ft | 1 kts | 58° |
| 2026-05-07 01:56 | 35.87459 | -78.79990 | 382 ft | 0 kts | 58° |
| 2026-05-07 01:57 | 35.87462 | -78.79984 | 382 ft | 3 kts | 57° |
| 2026-05-07 01:57 | 35.87497 | -78.79936 | 384 ft | 10 kts | 44° |
| 2026-05-07 01:57 | 35.87559 | -78.79862 | 386 ft | 13 kts | 44° |
| 2026-05-07 01:58 | 35.87631 | -78.79775 | 388 ft | 15 kts | 45° |
| 2026-05-07 01:58 | 35.87705 | -78.79681 | 390 ft | 15 kts | 45° |
| 2026-05-07 01:58 | 35.87785 | -78.79582 | 392 ft | 16 kts | 45° |
| 2026-05-07 01:58 | 35.87859 | -78.79492 | 395 ft | 11 kts | 45° |
| 2026-05-07 01:59 | 35.87910 | -78.79430 | 397 ft | 8 kts | 45° |
| 2026-05-07 01:59 | 35.87948 | -78.79382 | 398 ft | 6 kts | 45° |
| 2026-05-07 01:59 | 35.87980 | -78.79343 | 399 ft | 6 kts | 44° |
| 2026-05-07 01:59 | 35.88010 | -78.79306 | 400 ft | 6 kts | 45° |
| 2026-05-07 02:00 | 35.88049 | -78.79258 | 401 ft | 9 kts | 45° |
| 2026-05-07 02:00 | 35.88100 | -78.79195 | 403 ft | 11 kts | 45° |
| 2026-05-07 02:00 | 35.88152 | -78.79131 | 404 ft | 10 kts | 45° |
| 2026-05-07 02:00 | 35.88213 | -78.79055 | 406 ft | 15 kts | 45° |
| 2026-05-07 02:01 | 35.88303 | -78.78944 | 407 ft | 19 kts | 45° |
| 2026-05-07 02:01 | 35.88403 | -78.78822 | 409 ft | 20 kts | 45° |
| 2026-05-07 02:01 | 35.88508 | -78.78693 | 410 ft | 21 kts | 45° |
| 2026-05-07 02:01 | 35.88612 | -78.78564 | 410 ft | 20 kts | 45° |
| 2026-05-07 02:02 | 35.88686 | -78.78472 | 409 ft | 7 kts | 44° |
| 2026-05-07 02:02 | 35.88710 | -78.78423 | 409 ft | 5 kts | 102° |
| 2026-05-07 02:02 | 35.88693 | -78.78388 | 410 ft | 2 kts | 111° |
| 2026-05-07 02:02 | 35.88699 | -78.78365 | 410 ft | 4 kts | 66° |
| 2026-05-07 02:03 | 35.88718 | -78.78329 | 410 ft | 5 kts | 49° |
| 2026-05-07 02:03 | 35.88741 | -78.78296 | 410 ft | 4 kts | 74° |
| 2026-05-07 02:03 | 35.88735 | -78.78268 | 410 ft | 3 kts | 119° |
| 2026-05-07 02:03 | 35.88726 | -78.78254 | 410 ft | 0 kts | 132° |
| 2026-05-07 02:05 | 35.88719 | -78.78245 | 410 ft | 3 kts | 131° |
| 2026-05-07 02:05 | 35.88720 | -78.78228 | 410 ft | 3 kts | 58° |
| 2026-05-07 02:06 | 35.88747 | -78.78188 | 410 ft | 8 kts | 45° |
| 2026-05-07 02:06 | 35.88801 | -78.78120 | 409 ft | 13 kts | 46° |
| 2026-05-07 02:06 | 35.88862 | -78.78042 | 409 ft | 8 kts | 47° |
| 2026-05-07 02:06 | 35.88849 | -78.77998 | 409 ft | 6 kts | 146° |
| 2026-05-07 02:07 | 35.88819 | -78.77966 | 410 ft | 5 kts | 135° |
| 2026-05-07 02:07 | 35.88809 | -78.77953 | 410 ft | 0 kts | 135° |